createdAt,value
2022-09-14T00:00:46.343Z,47.13
2022-09-14T00:03:36.096Z,42.88
2022-09-14T00:06:25.137Z,42.53
2022-09-14T00:09:08.403Z,40.03
2022-09-14T00:11:57.112Z,45.20
2022-09-14T00:14:48.070Z,42.60
2022-09-14T00:17:36.414Z,44.83
2022-09-14T00:20:19.132Z,44.25
2022-09-14T00:23:01.859Z,48.33
2022-09-14T00:25:51.100Z,46.85
2022-09-14T00:28:37.987Z,42.08
2022-09-14T00:31:28.151Z,45.40
2022-09-14T00:34:22.129Z,47.00
2022-09-14T00:37:12.106Z,48.55
2022-09-14T00:40:01.589Z,47.85
2022-09-14T00:42:44.177Z,41.88
2022-09-14T00:45:34.142Z,42.20
2022-09-14T00:48:24.141Z,44.08
2022-09-14T00:51:13.159Z,46.72
2022-09-14T00:53:56.477Z,43.90
2022-09-14T00:56:45.153Z,44.13
2022-09-14T00:59:39.141Z,47.38
2022-09-14T01:02:31.201Z,50.05
2022-09-14T01:05:21.109Z,45.50
2022-09-14T01:08:10.015Z,45.58
2022-09-14T01:11:14.151Z,52.38
2022-09-14T01:14:16.103Z,44.22
2022-09-14T01:17:11.105Z,44.55
2022-09-14T01:19:58.597Z,43.40
2022-09-14T01:23:01.121Z,46.80
2022-09-14T01:26:05.099Z,40.63
2022-09-14T01:29:07.477Z,50.08
2022-09-14T01:32:31.095Z,48.58
2022-09-14T01:35:20.534Z,55.70
2022-09-14T01:38:09.105Z,49.58
2022-09-14T01:40:55.455Z,47.92
2022-09-14T01:44:05.144Z,51.72
2022-09-14T01:46:58.464Z,53.58
2022-09-14T01:49:53.837Z,58.72
2022-09-14T01:52:46.578Z,60.45
2022-09-14T01:56:09.015Z,57.95
2022-09-14T01:59:26.407Z,60.60
2022-09-14T02:02:46.149Z,57.35
2022-09-14T02:05:43.107Z,65.00
2022-09-14T02:08:29.795Z,64.20
2022-09-14T02:11:19.180Z,62.97
2022-09-14T02:14:15.199Z,71.97
2022-09-14T02:17:13.159Z,72.78
2022-09-14T02:20:01.308Z,70.80
2022-09-14T02:22:50.080Z,63.17
2022-09-14T02:25:42.304Z,70.65
2022-09-14T02:28:27.192Z,66.88
2022-09-14T02:31:27.640Z,65.75
2022-09-14T02:34:24.146Z,66.10
2022-09-14T02:37:23.503Z,70.63
2022-09-14T02:40:30.221Z,64.60
2022-09-14T02:43:30.304Z,63.78
2022-09-14T02:46:28.147Z,59.67
2022-09-14T02:49:49.075Z,56.45
2022-09-14T02:52:52.171Z,58.38
2022-09-14T02:55:39.665Z,58.37
2022-09-14T02:58:29.148Z,59.22
2022-09-14T03:01:21.227Z,56.22
2022-09-14T03:04:03.434Z,57.20
2022-09-14T03:06:52.146Z,66.25
2022-09-14T03:09:34.389Z,64.93
2022-09-14T03:12:23.081Z,61.97
2022-09-14T03:15:18.932Z,62.17
2022-09-14T03:18:15.119Z,65.18
2022-09-14T03:21:17.431Z,61.08
2022-09-14T03:24:03.147Z,66.53
2022-09-14T03:26:53.308Z,59.95
2022-09-14T03:29:36.119Z,73.97
2022-09-14T03:32:25.508Z,57.33
2022-09-14T03:35:08.140Z,61.75
2022-09-14T03:37:50.349Z,58.78
2022-09-14T03:40:39.119Z,65.50
2022-09-14T03:43:28.852Z,64.45
2022-09-14T03:46:27.589Z,65.07
2022-09-14T03:49:16.104Z,55.08
2022-09-14T03:51:59.873Z,63.67
2022-09-14T03:54:49.141Z,59.08
2022-09-14T03:57:31.503Z,64.25
2022-09-14T04:00:21.148Z,63.92
2022-09-14T04:03:04.343Z,60.60
2022-09-14T04:06:04.158Z,52.45
2022-09-14T04:08:53.049Z,51.40
2022-09-14T04:11:43.157Z,54.85
2022-09-14T04:14:32.962Z,58.33
2022-09-14T04:17:30.004Z,61.83
2022-09-14T04:20:29.080Z,59.08
2022-09-14T04:23:21.859Z,56.85
2022-09-14T04:26:04.407Z,44.58
2022-09-14T04:28:54.089Z,50.72
2022-09-14T04:31:36.513Z,50.80
2022-09-14T04:34:27.107Z,49.83
2022-09-14T04:37:13.948Z,52.45
2022-09-14T04:40:04.134Z,56.13
2022-09-14T04:42:46.483Z,52.28
2022-09-14T04:45:35.148Z,52.45
2022-09-14T04:48:17.722Z,57.45
2022-09-14T04:51:10.147Z,50.10
2022-09-14T04:53:59.871Z,48.05
2022-09-14T04:56:50.164Z,41.70
2022-09-14T04:59:35.734Z,43.03
2022-09-14T05:02:27.219Z,45.20
2022-09-14T05:05:16.187Z,59.30
2022-09-14T05:08:05.178Z,52.47
2022-09-14T05:10:48.181Z,54.03
2022-09-14T05:13:40.170Z,49.78
2022-09-14T05:16:25.586Z,49.78
2022-09-14T05:19:23.066Z,48.47
2022-09-14T05:22:14.697Z,49.40
2022-09-14T05:25:03.154Z,48.38
2022-09-14T05:27:47.983Z,54.67
2022-09-14T05:30:38.707Z,69.03
2022-09-14T05:36:25.547Z,81.55
2022-09-14T05:39:23.286Z,79.13
2022-09-14T05:42:06.500Z,87.53
2022-09-14T05:44:57.172Z,81.93
2022-09-14T05:48:04.807Z,80.57
2022-09-14T05:50:56.708Z,96.03
2022-09-14T05:53:49.216Z,83.97
2022-09-14T05:56:35.900Z,95.05
2022-09-14T05:59:29.064Z,87.75
2022-09-14T06:02:24.968Z,83.30
2022-09-14T06:05:09.753Z,83.50
2022-09-14T06:08:02.173Z,79.50
2022-09-14T06:10:44.549Z,88.78
2022-09-14T06:13:50.174Z,88.95
2022-09-14T06:16:44.536Z,89.60
2022-09-14T06:19:34.209Z,92.32
2022-09-14T06:22:16.483Z,85.72
2022-09-14T06:25:06.176Z,87.00
2022-09-14T06:27:51.509Z,88.57
2022-09-14T06:30:45.917Z,90.65
2022-09-14T06:33:31.220Z,95.38
2022-09-14T06:36:22.070Z,89.53
2022-09-14T06:39:09.563Z,83.00
2022-09-14T06:42:00.199Z,81.57
2022-09-14T06:44:47.243Z,83.95
2022-09-14T06:47:41.087Z,67.88
2022-09-14T06:50:26.589Z,86.05
2022-09-14T06:53:18.192Z,71.15
2022-09-14T06:56:01.619Z,78.45
2022-09-14T06:58:51.252Z,82.10
2022-09-14T07:01:34.661Z,76.10
2022-09-14T07:04:28.817Z,69.72
2022-09-14T07:07:11.534Z,75.75
2022-09-14T07:10:00.128Z,65.25
2022-09-14T07:12:42.420Z,68.53
2022-09-14T07:16:06.970Z,60.80
2022-09-14T07:18:57.544Z,63.58
2022-09-14T07:22:07.391Z,66.82
2022-09-14T07:25:03.261Z,58.72
2022-09-14T07:27:53.509Z,62.85
2022-09-14T07:30:45.727Z,72.50
2022-09-14T07:33:29.627Z,62.58
2022-09-14T07:36:24.442Z,61.03
2022-09-14T07:39:12.944Z,56.42
2022-09-14T07:42:08.956Z,64.47
2022-09-14T07:44:55.408Z,66.50
2022-09-14T07:47:47.479Z,56.35
2022-09-14T07:50:38.565Z,47.17
2022-09-14T07:53:29.083Z,52.10
2022-09-14T07:56:14.657Z,38.25
2022-09-14T07:59:30.783Z,43.05
2022-09-14T08:02:21.230Z,37.17
2022-09-14T08:05:04.369Z,36.17
2022-09-14T08:07:56.853Z,36.10
2022-09-14T08:10:39.431Z,35.10
2022-09-14T08:13:30.204Z,36.25
2022-09-14T08:16:23.290Z,38.53
2022-09-14T08:19:09.036Z,34.42
2022-09-14T08:22:00.732Z,35.58
2022-09-14T08:25:01.097Z,32.00
2022-09-14T08:27:53.085Z,39.03
2022-09-14T08:30:35.715Z,36.55
2022-09-14T08:33:25.518Z,36.55
2022-09-14T08:36:14.918Z,39.78
2022-09-14T08:39:03.507Z,31.85
2022-09-14T08:42:02.208Z,31.08
2022-09-14T08:45:14.383Z,33.83
2022-09-14T08:47:58.964Z,28.77
2022-09-14T08:50:44.215Z,29.00
2022-09-14T08:53:35.248Z,30.65
2022-09-14T08:56:33.187Z,39.70
2022-09-14T08:59:54.909Z,33.80
2022-09-14T09:03:38.887Z,32.47
2022-09-14T09:06:55.004Z,38.92
2022-09-14T09:10:00.518Z,38.22
2022-09-14T09:12:53.171Z,34.65
2022-09-14T09:16:03.255Z,32.42
2022-09-14T09:19:05.916Z,32.28
2022-09-14T09:21:50.556Z,32.75
2022-09-14T09:25:00.035Z,31.08
2022-09-14T09:27:42.557Z,35.22
2022-09-14T09:30:32.176Z,31.88
2022-09-14T09:33:27.301Z,37.97
2022-09-14T09:36:30.188Z,30.77
2022-09-14T09:39:13.385Z,29.60
2022-09-14T09:42:21.174Z,33.40
2022-09-14T09:45:07.041Z,35.25
2022-09-14T09:47:57.174Z,42.92
2022-09-14T09:50:51.309Z,44.08
2022-09-14T09:53:40.168Z,44.47
2022-09-14T09:56:36.550Z,41.58
2022-09-14T09:59:43.141Z,32.35
2022-09-14T10:02:40.558Z,34.13
2022-09-14T10:05:22.935Z,35.28
2022-09-14T10:08:23.087Z,31.40
2022-09-14T10:11:05.668Z,36.88
2022-09-14T10:13:56.218Z,34.70
2022-09-14T10:16:49.487Z,34.65
2022-09-14T10:19:40.170Z,36.03
2022-09-14T10:22:42.411Z,41.17
2022-09-14T10:25:41.673Z,33.28
2022-09-14T10:28:46.092Z,34.17
2022-09-14T10:31:32.990Z,31.25
2022-09-14T10:34:33.178Z,32.00
2022-09-14T10:37:37.132Z,32.15
2022-09-14T10:43:46.180Z,29.95
2022-09-14T10:47:19.095Z,37.15
2022-09-14T10:50:37.943Z,33.80
2022-09-14T10:53:42.190Z,36.00
2022-09-14T10:56:49.066Z,35.17
2022-09-14T10:59:40.165Z,37.60
2022-09-14T11:02:54.287Z,41.45
2022-09-14T11:08:45.170Z,54.47
2022-09-14T11:11:47.461Z,40.20
2022-09-14T11:14:49.193Z,35.45
2022-09-14T11:17:50.168Z,34.60
2022-09-14T11:21:09.520Z,32.03
2022-09-14T11:24:06.185Z,33.72
2022-09-14T11:27:09.946Z,36.05
2022-09-14T11:30:37.162Z,38.67
2022-09-14T11:33:56.502Z,48.47
2022-09-14T11:36:56.146Z,37.03
2022-09-14T11:39:51.140Z,42.20
2022-09-14T11:43:16.912Z,42.40
2022-09-14T11:46:14.113Z,36.60
2022-09-14T11:49:30.084Z,39.30
2022-09-14T11:52:21.959Z,49.97
2022-09-14T11:55:12.157Z,37.20
2022-09-14T11:58:05.198Z,43.80
2022-09-14T12:00:52.480Z,35.00
2022-09-14T12:04:25.163Z,34.13
2022-09-14T12:07:08.535Z,40.78
2022-09-14T12:09:59.156Z,40.25
2022-09-14T12:12:46.458Z,41.78
2022-09-14T12:15:37.241Z,52.33
2022-09-14T12:18:20.565Z,37.78
2022-09-14T12:21:26.143Z,40.38
2022-09-14T12:24:23.526Z,38.35
2022-09-14T12:27:29.191Z,40.13
2022-09-14T12:30:52.237Z,37.85
2022-09-14T12:33:34.412Z,42.78
2022-09-14T12:36:52.156Z,42.75
2022-09-14T12:39:37.784Z,38.20
2022-09-14T12:42:42.181Z,44.90
2022-09-14T12:45:51.247Z,36.08
2022-09-14T12:49:03.184Z,37.75
2022-09-14T12:51:59.184Z,40.55
2022-09-14T12:54:52.562Z,36.80
2022-09-14T12:58:11.173Z,46.22
2022-09-14T13:01:22.199Z,34.92
2022-09-14T13:04:20.217Z,39.60
2022-09-14T13:07:06.905Z,40.63
2022-09-14T13:09:54.517Z,45.53
2022-09-14T13:13:03.972Z,38.30
2022-09-14T13:16:12.111Z,42.15
2022-09-14T13:18:56.215Z,36.53
2022-09-14T13:21:58.466Z,42.40
2022-09-14T13:24:51.536Z,55.33
2022-09-14T13:27:46.082Z,41.92
2022-09-14T13:30:47.945Z,49.88
2022-09-14T13:33:34.581Z,59.35
2022-09-14T13:36:23.172Z,51.78
2022-09-14T13:39:33.069Z,66.07
2022-09-14T13:42:25.215Z,57.67
2022-09-14T13:45:30.011Z,51.20
2022-09-14T13:48:24.140Z,58.17
2022-09-14T13:51:10.599Z,59.50
2022-09-14T13:54:06.163Z,53.55
2022-09-14T13:56:55.171Z,58.67
2022-09-14T13:59:38.563Z,58.63
2022-09-14T14:02:31.181Z,49.90
2022-09-14T14:05:38.187Z,51.05
2022-09-14T14:08:55.671Z,50.53
2022-09-14T14:11:54.882Z,44.60
2022-09-14T14:14:46.095Z,46.92
2022-09-14T14:17:47.188Z,41.72
2022-09-14T14:20:47.164Z,43.83
2022-09-14T14:23:30.678Z,54.17
2022-09-14T14:26:49.707Z,44.17
2022-09-14T14:29:46.590Z,44.42
2022-09-14T14:32:36.173Z,46.40
2022-09-14T14:35:28.504Z,39.15
2022-09-14T14:38:20.169Z,49.03
2022-09-14T14:41:04.596Z,48.55
2022-09-14T14:43:59.715Z,53.53
2022-09-14T14:46:44.961Z,40.13
2022-09-14T14:49:34.214Z,42.45
2022-09-14T14:52:18.495Z,44.35
2022-09-14T14:55:07.069Z,43.57
2022-09-14T14:57:49.622Z,37.72
2022-09-14T15:00:46.122Z,44.55
2022-09-14T15:03:38.658Z,41.20
2022-09-14T15:06:34.035Z,39.83
2022-09-14T15:09:28.299Z,42.10
2022-09-14T15:12:18.153Z,44.97
2022-09-14T15:15:06.363Z,40.78
2022-09-14T15:17:56.952Z,50.85
2022-09-14T15:20:40.444Z,37.28
2022-09-14T15:23:30.427Z,44.88
2022-09-14T15:26:14.042Z,50.08
2022-09-14T15:29:10.184Z,44.55
2022-09-14T15:32:07.098Z,45.90
2022-09-14T15:34:58.235Z,41.47
2022-09-14T15:37:42.952Z,38.75
2022-09-14T15:40:28.789Z,43.22
2022-09-14T15:43:20.580Z,49.30
2022-09-14T15:46:12.252Z,45.28
2022-09-14T15:49:04.863Z,48.63
2022-09-14T15:52:00.069Z,38.85
2022-09-14T15:54:55.187Z,46.22
2022-09-14T15:57:45.154Z,45.75
2022-09-14T16:00:28.949Z,43.83
2022-09-14T16:03:24.812Z,46.72
2022-09-14T16:06:08.492Z,45.10
2022-09-14T16:08:58.180Z,43.42
2022-09-14T16:11:42.486Z,44.42
2022-09-14T16:14:33.072Z,43.60
2022-09-14T16:17:18.490Z,58.60
2022-09-14T16:20:09.058Z,45.40
2022-09-14T16:22:52.653Z,47.50
2022-09-14T16:25:50.178Z,50.13
2022-09-14T16:28:32.508Z,47.08
2022-09-14T16:31:34.124Z,49.10
2022-09-14T16:34:28.189Z,51.97
2022-09-14T16:37:23.822Z,47.85
2022-09-14T16:40:07.252Z,51.90
2022-09-14T16:42:56.160Z,50.47
2022-09-14T16:45:47.197Z,48.67
2022-09-14T16:48:32.432Z,51.60
2022-09-14T16:51:23.193Z,55.25
2022-09-14T16:54:08.142Z,54.05
2022-09-14T16:57:00.142Z,58.50
2022-09-14T16:59:42.616Z,49.25
2022-09-14T17:02:31.108Z,48.25
2022-09-14T17:05:13.552Z,46.15
2022-09-14T17:08:03.720Z,49.75
2022-09-14T17:10:53.176Z,50.70
2022-09-14T17:13:38.846Z,50.53
2022-09-14T17:16:35.258Z,53.85
2022-09-14T17:19:24.187Z,44.22
2022-09-14T17:22:15.654Z,52.40
2022-09-14T17:24:59.175Z,55.50
2022-09-14T17:27:47.481Z,55.03
2022-09-14T17:30:43.497Z,43.22
2022-09-14T17:33:36.845Z,45.30
2022-09-14T17:36:22.120Z,42.78
2022-09-14T17:39:18.636Z,49.67
2022-09-14T17:42:01.211Z,45.88
2022-09-14T17:44:44.749Z,49.28
2022-09-14T17:47:39.151Z,51.15
2022-09-14T17:50:22.192Z,41.38
2022-09-14T17:56:00.469Z,51.05
2022-09-14T17:58:44.100Z,57.47
2022-09-14T18:01:34.141Z,49.63
2022-09-14T18:04:19.605Z,52.08
2022-09-14T18:07:08.062Z,50.78
2022-09-14T18:09:50.669Z,53.05
2022-09-14T18:12:44.041Z,45.50
2022-09-14T18:15:38.195Z,33.93
2022-09-14T18:18:31.967Z,45.40
2022-09-14T18:21:23.147Z,45.60
2022-09-14T18:24:12.744Z,42.53
2022-09-14T18:26:58.092Z,44.50
2022-09-14T18:29:50.114Z,35.95
2022-09-14T18:32:45.131Z,43.33
2022-09-14T18:35:35.497Z,41.88
2022-09-14T18:38:21.104Z,38.33
2022-09-14T18:41:15.916Z,34.72
2022-09-14T18:44:00.923Z,40.17
2022-09-14T18:46:45.435Z,37.60
2022-09-14T18:49:35.159Z,40.88
2022-09-14T18:52:20.906Z,34.55
2022-09-14T18:55:13.645Z,39.30
2022-09-14T18:58:02.122Z,36.08
2022-09-14T19:00:54.265Z,36.45
2022-09-14T19:03:43.709Z,36.22
2022-09-14T19:06:27.109Z,41.33
2022-09-14T19:09:09.545Z,41.40
2022-09-14T19:11:58.129Z,36.88
2022-09-14T19:14:40.863Z,38.00
2022-09-14T19:17:30.550Z,34.15
2022-09-14T19:20:12.833Z,39.20
2022-09-14T19:23:04.188Z,36.17
2022-09-14T19:25:46.494Z,36.42
2022-09-14T19:28:35.015Z,36.28
2022-09-14T19:31:32.938Z,34.45
2022-09-14T19:34:28.068Z,38.42
2022-09-14T19:37:17.080Z,43.67
2022-09-14T19:40:06.064Z,42.35
2022-09-14T19:42:48.327Z,46.53
2022-09-14T19:45:37.034Z,38.25
2022-09-14T19:48:19.767Z,38.63
2022-09-14T19:54:03.401Z,37.33
2022-09-14T19:56:46.120Z,40.63
2022-09-14T19:59:35.516Z,41.92
2022-09-14T20:02:20.247Z,45.53
2022-09-14T20:05:02.559Z,43.75
2022-09-14T20:07:51.115Z,41.78
2022-09-14T20:10:40.151Z,39.42
2022-09-14T20:13:22.372Z,41.33
2022-09-14T20:16:25.697Z,38.65
2022-09-14T20:19:15.379Z,37.28
2022-09-14T20:22:01.823Z,46.95
2022-09-14T20:24:52.085Z,42.45
2022-09-14T20:27:34.391Z,38.70
2022-09-14T20:30:22.942Z,41.00
2022-09-14T20:33:17.924Z,40.65
2022-09-14T20:36:12.974Z,38.08
2022-09-14T20:38:58.505Z,41.25
2022-09-14T20:41:47.070Z,40.55
2022-09-14T20:44:36.994Z,39.78
2022-09-14T20:47:19.858Z,37.10
2022-09-14T20:50:08.998Z,38.45
2022-09-14T20:52:51.278Z,37.85
2022-09-14T20:55:40.030Z,35.13
2022-09-14T20:58:22.380Z,44.85
2022-09-14T21:01:32.014Z,43.13
2022-09-14T21:04:17.278Z,40.95
2022-09-14T21:07:08.997Z,35.83
2022-09-14T21:09:58.102Z,38.67
2022-09-14T21:12:40.344Z,33.13
2022-09-14T21:15:29.122Z,35.25
2022-09-14T21:18:11.362Z,40.50
2022-09-14T21:21:02.824Z,34.78
2022-09-14T21:23:45.459Z,32.45
2022-09-14T21:26:36.723Z,36.83
2022-09-14T21:29:34.039Z,29.50
2022-09-14T21:32:16.243Z,27.40
2022-09-14T21:35:12.049Z,33.25
2022-09-14T21:38:00.341Z,29.00
2022-09-14T21:40:44.968Z,28.75
2022-09-14T21:43:33.939Z,31.13
2022-09-14T21:46:17.392Z,35.72
2022-09-14T21:49:05.963Z,37.75
2022-09-14T21:51:48.594Z,30.88
2022-09-14T21:54:37.051Z,27.08
2022-09-14T21:57:19.385Z,31.02
2022-09-14T22:00:08.047Z,36.58
2022-09-14T22:02:50.380Z,38.28
2022-09-14T22:05:38.946Z,31.83
2022-09-14T22:08:27.935Z,32.90
2022-09-14T22:11:23.053Z,31.70
2022-09-14T22:14:20.962Z,27.40
2022-09-14T22:17:09.344Z,24.65
2022-09-14T22:19:52.049Z,24.88
2022-09-14T22:22:41.021Z,25.77
2022-09-14T22:25:26.048Z,30.70
2022-09-14T22:28:15.104Z,28.35
2022-09-14T22:31:02.463Z,22.70
2022-09-14T22:33:51.221Z,26.63
2022-09-14T22:36:48.054Z,28.15
2022-09-14T22:39:36.951Z,24.73
2022-09-14T22:42:26.021Z,24.30
2022-09-14T22:45:08.581Z,24.13
2022-09-14T22:47:57.039Z,25.73
2022-09-14T22:50:45.371Z,22.70
2022-09-14T22:53:29.040Z,23.30
2022-09-14T22:56:18.347Z,22.98
2022-09-14T22:59:00.950Z,25.27
2022-09-14T23:01:50.158Z,26.80
2022-09-14T23:04:32.873Z,22.25
2022-09-14T23:07:22.048Z,25.73
2022-09-14T23:10:10.959Z,26.23
2022-09-14T23:13:00.051Z,24.77
2022-09-14T23:15:47.241Z,24.30
2022-09-14T23:18:36.029Z,20.50
2022-09-14T23:21:26.017Z,24.70
2022-09-14T23:24:15.046Z,21.77
2022-09-14T23:26:57.372Z,22.45
2022-09-14T23:29:45.957Z,25.05
2022-09-14T23:32:34.946Z,23.33
2022-09-14T23:35:29.966Z,26.13
2022-09-14T23:38:12.229Z,25.10
2022-09-14T23:41:00.926Z,26.50
2022-09-14T23:43:43.734Z,26.38
2022-09-14T23:46:33.932Z,21.98
2022-09-14T23:49:24.017Z,23.90
2022-09-14T23:52:05.929Z,26.17
2022-09-14T23:54:54.436Z,21.50
2022-09-14T23:57:37.090Z,22.15
